Time;durP1;ratioP1;P1;durP2;ratioP2;P2;SDS_P1;SDS_P2;PMS_P1;PMS_P2;Temp;Humidity;BMP_temperature;BMP_pressure;BME280_temperature;BME280_humidity;BME280_pressure;Samples;Min_cycle;Max_cycle;Signal;HPM_P1;HPM_P2
2022/08/23 00:01:50;;;;;;;;;2.00;1.00;;;;;23.45;53.87;101092.63;6284045;22;45479;-81
2022/08/23 00:04:27;;;;;;;;;1.00;1.00;;;;;23.45;53.88;101092.63;6310418;22;45529;-80
2022/08/23 00:06:54;;;;;;;;;1.00;1.00;;;;;23.49;53.66;101101.41;6312399;22;45302;-80
2022/08/23 00:09:21;;;;;;;;;2.00;2.00;;;;;23.49;53.62;101096.88;6341297;22;45435;-80
2022/08/23 00:12:06;;;;;;;;;1.00;1.00;;;;;23.49;53.37;101096.88;6339208;22;45431;-80
2022/08/23 00:14:34;;;;;;;;;1.67;0.33;;;;;23.50;53.79;101097.78;6312987;22;45374;-79
2022/08/23 00:17:00;;;;;;;;;0.00;0.00;;;;;23.50;53.66;101101.34;6340034;22;45119;-80
2022/08/23 00:19:26;;;;;;;;;1.00;1.00;;;;;23.51;53.57;101095.00;6309804;22;46111;-80
2022/08/23 00:21:53;;;;;;;;;1.00;1.00;;;;;23.53;53.65;101089.56;6310133;22;45290;-80
2022/08/23 00:24:21;;;;;;;;;1.00;1.00;;;;;23.52;53.85;101091.38;6309628;22;45496;-80
2022/08/23 00:27:09;;;;;;;;;3.00;2.00;;;;;23.54;54.17;101088.59;6337975;22;45670;-80
2022/08/23 00:29:46;;;;;;;;;1.00;1.00;;;;;23.53;53.81;101086.88;6337895;22;46652;-79
2022/08/23 00:32:15;;;;;;;;;1.33;1.33;;;;;23.50;54.14;101082.53;6338375;22;45230;-80
2022/08/23 00:34:41;;;;;;;;;1.00;1.00;;;;;23.48;53.56;101080.84;6312792;22;45358;-79
2022/08/23 00:37:08;;;;;;;;;2.00;2.00;;;;;23.45;54.19;101081.03;6341059;22;45278;-80
2022/08/23 00:39:34;;;;;;;;;1.67;0.67;;;;;23.45;54.44;101083.72;6340396;22;46320;-80
2022/08/23 00:47:38;;;;;;;;;1.67;1.33;;;;;23.41;54.32;101088.34;6341136;22;45315;-79
2022/08/23 00:47:43;;;;;;;;;1.33;1.00;;;;;23.37;54.38;101091.31;6342441;22;45207;-80
2022/08/23 00:50:30;;;;;;;;;1.00;1.00;;;;;23.32;54.71;101092.38;6314093;22;45685;-80
2022/08/23 00:53:11;;;;;;;;;0.33;0.33;;;;;23.33;54.46;101087.88;6313908;22;46433;-80
2022/08/23 00:55:39;;;;;;;;;2.33;2.00;;;;;23.29;54.46;101092.56;6341786;22;45302;-80
2022/08/23 00:58:04;;;;;;;;;1.00;1.00;;;;;23.26;54.60;101092.72;6342072;22;45422;-79
2022/08/23 01:00:31;;;;;;;;;2.33;2.33;;;;;23.22;54.85;101088.44;6341860;22;45181;-80
2022/08/23 01:02:57;;;;;;;;;3.00;2.00;;;;;23.22;55.18;101091.13;6313758;22;45660;-80
2022/08/23 01:05:27;;;;;;;;;2.00;2.00;;;;;23.19;54.99;101091.28;6313167;22;45381;-80
2022/08/23 01:07:56;;;;;;;;;2.00;2.00;;;;;23.18;55.23;101088.69;6341788;22;45170;-80
2022/08/23 01:10:30;;;;;;;;;1.67;1.00;;;;;23.16;55.20;101096.81;6313650;22;47348;-80
2022/08/23 01:13:08;;;;;;;;;1.00;1.00;;;;;23.15;55.27;101099.56;6341848;22;45400;-80
2022/08/23 01:15:45;;;;;;;;;1.00;1.00;;;;;23.14;55.14;101101.38;6313515;22;45345;-79
2022/08/23 01:18:13;;;;;;;;;1.67;1.67;;;;;23.13;55.08;101102.34;6313374;22;46239;-80
2022/08/23 01:20:49;;;;;;;;;3.67;2.00;;;;;23.11;54.95;101099.72;6341635;22;46131;-79
2022/08/23 01:23:29;;;;;;;;;2.00;1.00;;;;;23.12;55.01;101103.28;6342035;22;45266;-80
2022/08/23 01:25:55;;;;;;;;;0.00;0.00;;;;;23.12;55.95;101100.59;6342284;22;45184;-80
2022/08/23 01:28:20;;;;;;;;;0.67;0.67;;;;;23.12;55.65;101100.59;6341985;22;45270;-80
2022/08/23 01:30:47;;;;;;;;;1.00;1.00;;;;;23.13;55.40;101104.16;6341979;22;45631;-80
2022/08/23 01:33:12;;;;;;;;;1.00;1.00;;;;;23.14;55.76;101098.69;6342048;22;45147;-80
2022/08/23 01:35:46;;;;;;;;;1.00;1.00;;;;;23.17;55.73;101101.22;6342227;22;45171;-79
2022/08/23 01:38:12;;;;;;;;;1.00;1.00;;;;;23.19;55.53;101093.97;6342207;22;45166;-79
2022/08/23 01:40:39;;;;;;;;;0.00;0.00;;;;;23.23;55.56;101098.25;6341701;22;45842;-79
2022/08/23 01:43:05;;;;;;;;;1.00;1.00;;;;;23.22;55.44;101090.25;6341761;22;45354;-79
2022/08/23 01:45:32;;;;;;;;;1.00;1.00;;;;;23.26;55.16;101091.84;6341970;22;45357;-79
2022/08/23 01:47:58;;;;;;;;;1.00;1.00;;;;;23.25;54.99;101092.78;6313248;22;45405;-79
2022/08/23 01:50:24;;;;;;;;;1.00;1.00;;;;;23.26;55.39;101097.22;6341800;22;45377;-80
2022/08/23 01:52:50;;;;;;;;;0.33;0.33;;;;;23.26;54.95;101097.22;6313202;22;45886;-80
2022/08/23 01:55:17;;;;;;;;;3.00;2.00;;;;;23.23;55.46;101095.56;6313327;22;45556;-79
2022/08/23 01:57:45;;;;;;;;;0.00;0.00;;;;;23.20;55.12;101097.50;6341750;22;45670;-79
2022/08/23 02:00:12;;;;;;;;;2.00;2.00;;;;;23.19;55.07;101101.16;6341560;22;45566;-79
2022/08/23 02:02:38;;;;;;;;;0.67;0.67;;;;;23.18;55.54;101103.00;6312722;22;45302;-79
2022/08/23 02:05:05;;;;;;;;;1.00;1.00;;;;;23.18;55.29;101108.34;6313638;22;45541;-79
2022/08/23 02:07:30;;;;;;;;;0.00;0.00;;;;;23.18;55.53;101104.81;6313410;22;45180;-79
2022/08/23 02:09:56;;;;;;;;;1.00;1.00;;;;;23.18;55.38;101105.66;6341659;22;45151;-79
2022/08/23 02:12:21;;;;;;;;;1.67;0.33;;;;;23.19;55.30;101110.09;6341848;22;45159;-79
2022/08/23 02:14:47;;;;;;;;;0.00;0.00;;;;;23.19;55.76;101106.53;6342258;22;45169;-79
2022/08/23 02:17:14;;;;;;;;;0.67;0.67;;;;;23.19;55.46;101093.97;6341759;22;45480;-79
2022/08/23 02:19:40;;;;;;;;;2.00;1.00;;;;;23.19;55.55;101090.41;6341958;22;45338;-79
2022/08/23 02:22:07;;;;;;;;;0.67;0.67;;;;;23.20;55.73;101093.03;6313231;22;45403;-80
2022/08/23 02:24:33;;;;;;;;;0.67;0.67;;;;;23.20;55.59;101100.19;6342055;22;45385;-79
2022/08/23 02:27:02;;;;;;;;;1.00;1.00;;;;;23.22;55.67;101109.06;6313339;22;45974;-79
2022/08/23 02:29:31;;;;;;;;;0.00;0.00;;;;;23.21;55.55;101110.03;6341956;22;46267;-79
2022/08/23 02:31:57;;;;;;;;;1.00;0.00;;;;;23.17;55.79;101108.41;6339474;22;45334;-78
2022/08/23 02:34:24;;;;;;;;;1.00;1.00;;;;;23.16;55.62;101112.94;6341931;22;45288;-79
2022/08/23 02:36:49;;;;;;;;;0.67;0.67;;;;;23.13;55.96;101109.53;6313342;22;45677;-80
2022/08/23 02:39:17;;;;;;;;;0.00;0.00;;;;;23.11;55.53;101109.59;6341493;22;45574;-79
2022/08/23 02:41:43;;;;;;;;;0.00;0.00;;;;;23.07;55.79;101106.22;6341440;22;45230;-79
2022/08/23 02:44:09;;;;;;;;;1.00;1.00;;;;;23.07;55.81;101105.34;6341683;22;45176;-79
2022/08/23 02:46:36;;;;;;;;;0.00;0.00;;;;;23.08;55.79;101115.13;6341294;22;45384;-79
2022/08/23 02:49:02;;;;;;;;;0.33;0.33;;;;;23.08;55.81;101113.31;6341503;22;46190;-79
2022/08/23 02:51:27;;;;;;;;;1.00;0.00;;;;;23.06;56.07;101111.66;6313233;22;45723;-79
2022/08/23 02:53:53;;;;;;;;;1.00;1.00;;;;;23.05;56.10;101110.78;6341675;22;45261;-79
2022/08/23 02:56:18;;;;;;;;;1.00;1.00;;;;;23.05;56.08;101104.56;6341898;22;45421;-79
2022/08/23 02:58:47;;;;;;;;;0.00;0.00;;;;;23.02;56.05;101110.94;6341760;22;45178;-79
2022/08/23 03:01:24;;;;;;;;;1.00;1.00;;;;;23.01;56.04;101105.63;6313131;22;45260;-80
2022/08/23 03:03:50;;;;;;;;;1.00;1.00;;;;;23.01;56.45;101111.88;6313058;22;45264;-79
2022/08/23 03:06:16;;;;;;;;;0.67;0.67;;;;;23.01;56.49;101114.56;6341333;22;45228;-79
2022/08/23 03:08:42;;;;;;;;;1.00;1.00;;;;;22.97;56.19;101117.50;6341717;22;46443;-78
2022/08/23 03:11:16;;;;;;;;;1.00;1.00;;;;;22.98;56.70;101121.91;6342481;22;45344;-79
2022/08/23 03:13:44;;;;;;;;;0.00;0.00;;;;;22.96;56.53;101121.06;6313231;22;45252;-79
2022/08/23 03:16:10;;;;;;;;;1.00;1.00;;;;;22.95;56.72;101116.66;6341278;22;45129;-79
2022/08/23 03:18:37;;;;;;;;;1.00;1.00;;;;;22.94;56.65;101123.84;6341449;22;46315;-79
2022/08/23 03:21:04;;;;;;;;;1.67;1.67;;;;;22.96;56.37;101130.06;6313204;22;45338;-79
2022/08/23 03:23:29;;;;;;;;;2.00;2.00;;;;;22.93;56.73;101121.22;6340906;22;45608;-79
2022/08/23 03:25:57;;;;;;;;;0.00;0.00;;;;;22.88;57.01;101118.75;6312994;22;45361;-79
2022/08/23 03:28:23;;;;;;;;;1.67;1.67;;;;;22.88;56.64;101127.72;6313135;22;46096;-79
2022/08/23 03:30:49;;;;;;;;;1.67;1.67;;;;;22.85;56.78;101118.91;6312223;22;45445;-80
2022/08/23 03:33:15;;;;;;;;;1.67;1.00;;;;;22.84;57.18;101118.06;6341424;22;45101;-79
2022/08/23 03:35:41;;;;;;;;;1.00;0.67;;;;;22.83;57.04;101116.31;6341431;22;45183;-79
2022/08/23 03:38:06;;;;;;;;;3.00;2.00;;;;;22.81;57.00;101123.56;6341194;22;46231;-79
2022/08/23 03:40:32;;;;;;;;;1.00;1.00;;;;;22.78;57.11;101120.19;6312677;22;45188;-80
2022/08/23 03:42:57;;;;;;;;;1.33;1.33;;;;;22.76;57.24;101125.59;6313030;22;45247;-79
2022/08/23 03:45:23;;;;;;;;;1.00;1.00;;;;;22.75;56.97;101133.72;6341929;22;45277;-80
2022/08/23 03:47:48;;;;;;;;;1.00;0.67;;;;;22.70;57.51;101133.97;6341401;22;45187;-79
2022/08/23 03:50:14;;;;;;;;;2.00;1.00;;;;;22.67;57.64;101134.13;6340990;22;45462;-78
2022/08/23 03:52:39;;;;;;;;;2.67;1.67;;;;;22.67;57.97;101148.41;6341720;22;45648;-80
2022/08/23 03:55:05;;;;;;;;;1.00;1.00;;;;;22.64;57.60;101148.56;6312701;22;45580;-79
2022/08/23 03:57:31;;;;;;;;;2.00;1.67;;;;;22.64;58.27;101155.72;6313282;22;47747;-79
2022/08/23 03:59:58;;;;;;;;;1.00;1.00;;;;;22.62;58.18;101154.94;6340945;22;45283;-79
2022/08/23 04:02:24;;;;;;;;;2.67;2.67;;;;;22.57;58.45;101154.28;6313130;22;45256;-79
2022/08/23 04:04:50;;;;;;;;;1.33;1.00;;;;;22.57;58.14;101157.84;6312604;22;45445;-79
2022/08/23 04:07:20;;;;;;;;;1.00;1.00;;;;;22.53;58.48;101164.28;6341096;22;45380;-79
2022/08/23 04:09:46;;;;;;;;;1.00;1.00;;;;;22.50;58.44;101159.06;6340999;22;45250;-79
2022/08/23 04:12:11;;;;;;;;;2.00;2.00;;;;;22.46;58.50;101162.84;6341483;22;45325;-79
2022/08/23 04:14:37;;;;;;;;;1.00;1.00;;;;;22.43;58.23;101153.13;6313147;22;45415;-78
2022/08/23 04:17:02;;;;;;;;;3.00;2.00;;;;;22.42;58.62;101163.91;6312565;22;46577;-79
2022/08/23 04:19:28;;;;;;;;;2.67;2.67;;;;;22.39;58.45;101164.06;6341321;22;45385;-78
2022/08/23 04:21:53;;;;;;;;;2.00;1.00;;;;;22.36;59.00;101162.38;6341448;22;45257;-79
2022/08/23 04:24:19;;;;;;;;;1.33;1.33;;;;;22.34;58.64;101160.72;6340576;22;45318;-79
2022/08/23 04:26:44;;;;;;;;;1.00;1.00;;;;;22.33;58.92;101167.91;6312574;22;47493;-79
2022/08/23 04:29:13;;;;;;;;;1.33;1.33;;;;;22.30;59.05;101170.72;6341103;22;45124;-79
2022/08/23 04:31:38;;;;;;;;;1.00;1.00;;;;;22.28;58.91;101175.28;6341100;22;45179;-79
2022/08/23 04:34:04;;;;;;;;;2.00;2.00;;;;;22.24;59.19;101166.50;6341132;22;45457;-80
2022/08/23 04:36:34;;;;;;;;;3.00;3.00;;;;;22.23;59.24;101172.78;6312640;22;47329;-78
2022/08/23 04:38:59;;;;;;;;;2.67;2.67;;;;;22.22;59.04;101173.75;6340266;22;45338;-79
2022/08/23 04:44:09;;;;;;;;;3.67;2.00;;;;;22.18;59.13;101179.28;6341039;22;45347;-78
2022/08/23 04:46:35;;;;;;;;;3.33;2.00;;;;;22.19;59.11;101181.06;6312163;22;48150;-78
2022/08/23 04:49:00;;;;;;;;;3.33;2.67;;;;;22.17;59.24;101173.06;6340995;22;45113;-80
2022/08/23 04:51:26;;;;;;;;;1.00;1.00;;;;;22.19;59.19;101181.94;6312770;22;45236;-79
2022/08/23 04:53:52;;;;;;;;;1.00;1.00;;;;;22.19;59.55;101184.63;6312190;22;45251;-79
2022/08/23 04:56:17;;;;;;;;;2.00;1.00;;;;;22.18;59.35;101182.84;6340809;22;45438;-79
2022/08/23 04:58:43;;;;;;;;;2.00;2.00;;;;;22.20;59.60;101186.34;6312167;22;45262;-79
2022/08/23 05:01:09;;;;;;;;;2.00;2.00;;;;;22.21;59.51;101189.91;6312690;22;45276;-78
2022/08/23 05:03:36;;;;;;;;;2.00;2.00;;;;;22.21;59.69;101189.91;6312717;22;45339;-79
2022/08/23 05:06:03;;;;;;;;;1.00;1.00;;;;;22.21;59.76;101192.56;6339864;22;46342;-78
2022/08/23 05:08:30;;;;;;;;;3.00;3.00;;;;;22.21;59.61;101192.56;6312362;22;45433;-79
2022/08/23 05:11:02;;;;;;;;;4.00;3.67;;;;;22.21;59.54;101189.91;6312404;22;45160;-78
2022/08/23 05:13:29;;;;;;;;;4.00;4.00;;;;;22.23;59.96;101196.06;6340933;22;45268;-78
2022/08/23 05:15:55;;;;;;;;;3.33;3.00;;;;;22.20;59.84;101183.66;6311910;22;47392;-78
2022/08/23 05:18:24;;;;;;;;;3.00;3.00;;;;;22.21;59.96;101188.13;6340716;22;45096;-79
2022/08/23 05:20:50;;;;;;;;;2.67;2.67;;;;;22.24;59.88;101185.28;6341021;22;45341;-78
2022/08/23 05:23:15;;;;;;;;;3.67;3.67;;;;;22.24;59.83;101192.47;6340443;22;45368;-79
2022/08/23 05:25:51;;;;;;;;;4.33;3.00;;;;;22.24;60.07;101189.78;6340918;22;45348;-79
2022/08/23 05:28:24;;;;;;;;;2.00;2.00;;;;;22.25;59.76;101186.16;6312205;22;45263;-79
2022/08/23 05:31:09;;;;;;;;;1.33;1.33;;;;;22.26;59.73;101195.06;6312491;22;45313;-79
2022/08/23 05:33:35;;;;;;;;;2.33;2.33;;;;;22.25;59.98;101194.19;6312262;22;45770;-79
2022/08/23 05:36:03;;;;;;;;;2.00;2.00;;;;;22.30;59.89;101208.28;6341845;22;45361;-79
2022/08/23 05:38:30;;;;;;;;;3.33;3.33;;;;;22.29;59.87;101205.66;6342511;22;45353;-78
2022/08/23 05:40:57;;;;;;;;;3.33;2.67;;;;;22.34;59.62;101211.69;6342252;22;45220;-78
2022/08/23 05:43:24;;;;;;;;;0.00;0.00;;;;;22.34;60.19;101211.69;6341966;22;45423;-79
2022/08/23 05:46:08;;;;;;;;;2.00;2.00;;;;;22.38;59.73;101210.63;6341944;22;45551;-79
2022/08/23 05:48:34;;;;;;;;;3.00;2.33;;;;;22.37;59.94;101204.38;6313573;22;45595;-79
2022/08/23 05:51:15;;;;;;;;;3.33;2.00;;;;;22.38;59.75;101206.13;6342160;22;45330;-79
2022/08/23 05:53:41;;;;;;;;;4.00;4.00;;;;;22.42;59.98;101210.38;6341266;22;45379;-79
2022/08/23 05:56:14;;;;;;;;;2.33;2.33;;;;;22.43;59.82;101209.47;6314514;22;47219;-80
2022/08/23 05:58:39;;;;;;;;;6.00;4.00;;;;;22.45;60.03;101210.28;6313680;22;45209;-81
2022/08/23 06:01:05;;;;;;;;;4.00;4.00;;;;;22.48;59.59;101208.38;6339917;22;45208;-81
2022/08/23 06:03:30;;;;;;;;;3.00;3.00;;;;;22.48;59.79;101211.94;6313964;22;45442;-79
2022/08/23 06:05:57;;;;;;;;;3.00;3.00;;;;;22.51;59.59;101216.28;6340721;22;45372;-78
2022/08/23 06:08:23;;;;;;;;;5.00;5.00;;;;;22.52;59.72;101209.97;6341654;22;45251;-78
2022/08/23 06:10:48;;;;;;;;;4.33;4.33;;;;;22.56;59.94;101209.78;6342110;22;45216;-78
2022/08/23 06:13:13;;;;;;;;;6.00;4.00;;;;;22.59;59.62;101212.31;6313761;22;45156;-79
2022/08/23 06:15:43;;;;;;;;;5.33;4.00;;;;;22.61;59.59;101212.22;6313172;22;47007;-78
2022/08/23 06:18:08;;;;;;;;;4.33;4.33;;;;;22.68;59.68;101216.38;6341805;22;45308;-78
2022/08/23 06:20:33;;;;;;;;;2.00;2.00;;;;;22.70;59.67;101225.22;6313687;22;45207;-79
2022/08/23 06:22:59;;;;;;;;;3.00;3.00;;;;;22.73;59.51;101224.22;6339663;22;45347;-79
2022/08/23 06:25:24;;;;;;;;;5.00;5.00;;;;;22.76;59.41;101227.63;6313271;22;48420;-79
2022/08/23 06:27:50;;;;;;;;;4.67;3.00;;;;;22.82;59.23;101227.31;6341347;22;45191;-79
2022/08/23 06:30:16;;;;;;;;;3.33;3.33;;;;;22.84;59.38;101228.13;6314020;22;45200;-79
2022/08/23 06:32:41;;;;;;;;;2.33;2.33;;;;;22.90;59.05;101235.88;6341899;22;45318;-79
2022/08/23 06:35:07;;;;;;;;;3.00;3.00;;;;;22.97;58.95;101233.84;6341860;22;46739;-79
2022/08/23 06:37:32;;;;;;;;;4.00;4.00;;;;;23.04;59.15;101235.28;6313500;22;45704;-79
2022/08/23 06:39:58;;;;;;;;;2.00;2.00;;;;;23.10;59.30;101240.34;6339327;22;45200;-79
2022/08/23 06:42:24;;;;;;;;;4.00;4.00;;;;;23.19;58.59;101240.84;6341877;22;45105;-80
2022/08/23 06:44:50;;;;;;;;;5.00;5.00;;;;;23.25;58.79;101240.53;6313079;22;46208;-79
2022/08/23 06:47:15;;;;;;;;;3.67;3.67;;;;;23.37;58.83;101247.16;6341113;22;45341;-79
2022/08/23 06:49:41;;;;;;;;;5.00;4.00;;;;;23.46;58.23;101244.00;6313724;22;45378;-79
2022/08/23 06:52:07;;;;;;;;;2.00;2.00;;;;;23.53;57.96;101246.31;6313561;22;45553;-79
2022/08/23 06:54:35;;;;;;;;;2.67;2.67;;;;;23.64;57.52;101244.91;6312742;22;47134;-81
2022/08/23 06:57:01;;;;;;;;;2.67;2.67;;;;;23.68;57.62;101249.16;6313205;22;45189;-81
2022/08/23 06:59:27;;;;;;;;;4.00;2.00;;;;;23.69;57.44;101246.41;6341861;22;45223;-81
2022/08/23 07:01:55;;;;;;;;;2.33;2.00;;;;;23.70;56.97;101242.75;6341519;22;45168;-81
2022/08/23 07:04:24;;;;;;;;;2.00;2.00;;;;;23.70;57.05;101247.28;6312916;22;48403;-81
2022/08/23 07:06:50;;;;;;;;;2.00;2.00;;;;;23.72;57.46;101253.50;6313052;22;45593;-81
2022/08/23 07:09:17;;;;;;;;;2.00;2.00;;;;;23.74;57.35;101255.16;6312509;22;45279;-81
2022/08/23 07:11:43;;;;;;;;;2.67;1.67;;;;;23.77;57.00;101256.81;6313387;22;45451;-81
2022/08/23 07:14:11;;;;;;;;;4.00;4.00;;;;;23.80;57.22;101261.16;6312872;22;47216;-81
2022/08/23 07:16:44;;;;;;;;;4.67;4.67;;;;;23.87;57.31;101258.09;6312670;22;45321;-81
2022/08/23 07:19:10;;;;;;;;;2.33;2.33;;;;;24.01;57.14;101267.28;6313101;22;45423;-81
2022/08/23 07:21:36;;;;;;;;;3.00;3.00;;;;;24.09;57.14;101263.22;6341281;22;45364;-81
2022/08/23 07:24:02;;;;;;;;;2.00;2.00;;;;;24.20;57.06;101262.66;6340903;22;46167;-81
2022/08/23 07:26:28;;;;;;;;;2.00;2.00;;;;;24.29;56.64;101264.88;6341269;22;45318;-81
2022/08/23 07:28:54;;;;;;;;;2.00;2.00;;;;;24.38;56.78;101263.53;6312891;22;45417;-82
2022/08/23 07:31:29;;;;;;;;;5.00;5.00;;;;;24.47;57.10;101259.50;6341349;22;45164;-82
2022/08/23 07:33:57;;;;;;;;;6.33;5.33;;;;;24.52;56.71;101265.50;6341529;22;46115;-80
2022/08/23 07:36:25;;;;;;;;;4.67;3.33;;;;;24.59;57.10;101277.66;6341243;22;45405;-81
2022/08/23 07:38:52;;;;;;;;;3.00;3.00;;;;;24.66;56.56;101276.41;6313025;22;45346;-81
2022/08/23 07:41:18;;;;;;;;;3.00;3.00;;;;;24.70;56.70;101272.59;6340962;22;45298;-81
2022/08/23 07:43:43;;;;;;;;;6.00;5.00;;;;;24.74;56.71;101278.69;6313717;22;46219;-78
2022/08/23 07:46:10;;;;;;;;;3.00;3.00;;;;;24.79;56.47;101279.28;6312375;22;45389;-81
2022/08/23 07:48:37;;;;;;;;;5.00;4.00;;;;;24.85;56.72;101271.72;6313183;22;45160;-80
2022/08/23 07:51:08;;;;;;;;;4.00;3.00;;;;;24.94;56.94;101275.78;6340955;22;45194;-79
2022/08/23 07:53:34;;;;;;;;;3.00;3.00;;;;;25.03;56.12;101277.94;6312659;22;47170;-79
2022/08/23 07:56:04;;;;;;;;;3.00;3.00;;;;;25.16;55.93;101280.84;6312599;22;45772;-81
2022/08/23 07:58:29;;;;;;;;;3.00;3.00;;;;;25.25;56.27;101283.00;6312769;22;45284;-81
2022/08/23 08:00:54;;;;;;;;;4.00;4.00;;;;;25.35;55.90;101290.59;6340186;22;45364;-79
2022/08/23 08:03:20;;;;;;;;;4.33;4.33;;;;;25.41;55.98;101287.53;6341146;22;45348;-79
2022/08/23 08:05:45;;;;;;;;;3.67;3.67;;;;;25.44;55.72;101284.66;6340638;22;45245;-79
2022/08/23 08:08:11;;;;;;;;;5.00;5.00;;;;;25.42;55.69;101284.78;6341041;22;45318;-82
2022/08/23 08:10:42;;;;;;;;;4.33;3.33;;;;;25.39;55.90;101286.75;6340762;22;45336;-81
2022/08/23 08:13:08;;;;;;;;;3.67;3.67;;;;;25.37;55.44;101283.25;6311327;22;47289;-78
2022/08/23 08:15:34;;;;;;;;;3.67;2.33;;;;;25.40;55.94;101285.81;6340452;22;45233;-79
2022/08/23 08:17:59;;;;;;;;;3.00;3.00;;;;;25.46;55.84;101285.44;6341278;22;45332;-79
2022/08/23 08:20:25;;;;;;;;;6.33;4.00;;;;;25.48;55.58;101284.41;6312153;22;45547;-80
2022/08/23 08:22:51;;;;;;;;;4.00;4.00;;;;;25.55;55.59;101284.03;6340784;22;45997;-79
2022/08/23 08:25:16;;;;;;;;;3.00;3.00;;;;;25.58;55.12;101289.25;6311449;22;45418;-80
2022/08/23 08:27:42;;;;;;;;;1.67;1.67;;;;;25.63;55.30;101290.72;6340877;22;45716;-80
2022/08/23 08:30:09;;;;;;;;;3.00;3.00;;;;;25.71;55.29;101298.38;6341152;22;45340;-80
2022/08/23 08:32:35;;;;;;;;;3.00;3.00;;;;;25.77;55.38;101299.84;6341104;22;46414;-79
2022/08/23 08:35:01;;;;;;;;;2.00;2.00;;;;;25.81;55.30;101296.00;6312746;22;45779;-79
2022/08/23 08:37:27;;;;;;;;;4.00;4.00;;;;;25.91;55.02;101305.34;6312731;22;45250;-80
2022/08/23 08:39:53;;;;;;;;;4.67;4.00;;;;;25.98;54.73;101308.53;6340610;22;45341;-79
2022/08/23 08:42:30;;;;;;;;;3.00;3.00;;;;;26.00;54.49;101306.63;6341102;22;45211;-79
2022/08/23 08:45:02;;;;;;;;;2.00;2.00;;;;;26.01;54.52;101309.25;6340954;22;45653;-79
2022/08/23 08:47:47;;;;;;;;;3.33;3.00;;;;;26.04;54.96;101310.88;6340522;22;45180;-80
2022/08/23 08:50:38;;;;;;;;;3.00;3.00;;;;;26.11;54.40;101304.16;6312112;22;45518;-80
2022/08/23 08:53:24;;;;;;;;;4.00;4.00;;;;;26.20;54.30;101309.00;6340383;22;46218;-79
2022/08/23 08:55:55;;;;;;;;;3.67;2.67;;;;;26.30;54.50;101302.09;6340652;22;45167;-80
2022/08/23 08:58:39;;;;;;;;;2.33;2.33;;;;;26.42;54.07;101303.16;6311972;22;45402;-80
2022/08/23 09:01:05;;;;;;;;;3.00;3.00;;;;;26.56;54.01;101299.63;6312071;22;45328;-79
2022/08/23 09:03:34;;;;;;;;;3.33;3.33;;;;;26.64;54.06;101308.13;6340508;22;46567;-79
2022/08/23 09:06:20;;;;;;;;;4.00;4.00;;;;;26.73;52.94;101306.69;6308922;22;45223;-80
2022/08/23 09:09:23;;;;;;;;;3.00;2.67;;;;;26.79;53.01;101314.44;6338193;22;45208;-81
2022/08/23 09:12:10;;;;;;;;;4.00;4.00;;;;;26.78;52.96;101316.25;6311675;22;45348;-81
2022/08/23 09:14:55;;;;;;;;;5.33;5.33;;;;;26.82;52.65;101317.78;6311299;22;46793;-81
2022/08/23 09:17:40;;;;;;;;;5.67;4.00;;;;;26.85;52.68;101322.13;6339035;22;45346;-82
2022/08/23 09:20:07;;;;;;;;;4.00;4.00;;;;;26.91;52.50;101320.88;6341396;22;45340;-80
2022/08/23 09:22:38;;;;;;;;;4.67;4.00;;;;;27.01;52.29;101322.03;6312940;22;45487;-81
2022/08/23 09:25:06;;;;;;;;;3.00;3.00;;;;;27.03;52.14;101318.28;6311103;22;47437;-81
2022/08/23 09:27:32;;;;;;;;;3.67;3.00;;;;;27.12;51.99;101318.66;6312392;22;45222;-81
2022/08/23 09:30:00;;;;;;;;;3.00;3.00;;;;;27.18;51.88;101316.44;6311545;22;45323;-81
2022/08/23 09:32:37;;;;;;;;;5.67;5.67;;;;;27.17;51.44;101319.25;6311995;22;45418;-82
2022/08/23 09:35:05;;;;;;;;;7.00;7.00;;;;;27.04;51.31;101320.00;6339557;22;45302;-81
2022/08/23 09:37:56;;;;;;;;;6.00;5.00;;;;;26.91;51.95;101310.06;6340325;22;45204;-81
2022/08/23 09:40:32;;;;;;;;;3.33;3.33;;;;;26.87;51.47;101311.25;6311634;22;45616;-79
2022/08/23 09:43:03;;;;;;;;;4.33;4.00;;;;;26.83;51.95;101310.56;6312528;22;45384;-83
2022/08/23 09:45:35;;;;;;;;;4.67;4.67;;;;;26.78;51.73;101304.56;6341936;22;45620;-79
2022/08/23 09:48:02;;;;;;;;;5.67;4.67;;;;;26.81;51.86;101307.97;6341150;22;45577;-80
2022/08/23 09:50:32;;;;;;;;;4.00;3.67;;;;;26.79;51.99;101312.59;6311509;22;45406;-81
2022/08/23 09:53:01;;;;;;;;;4.00;4.00;;;;;26.82;52.10;101309.69;6312182;22;45495;-82
2022/08/23 09:55:37;;;;;;;;;3.67;3.00;;;;;26.83;52.13;101311.41;6342090;22;45250;-87
2022/08/23 09:58:16;;;;;;;;;2.00;2.00;;;;;26.85;52.30;101316.72;6312600;22;45225;-79
2022/08/23 10:00:42;;;;;;;;;4.00;3.00;;;;;26.87;51.99;101312.09;6313025;22;45313;-80
2022/08/23 10:03:24;;;;;;;;;3.33;3.33;;;;;26.93;51.95;101305.44;6340644;22;45281;-80
2022/08/23 10:05:56;;;;;;;;;3.00;3.00;;;;;26.96;51.67;101313.34;6312220;22;46371;-80
2022/08/23 10:08:31;;;;;;;;;2.50;2.50;;;;;26.95;51.75;101298.97;6312541;22;45166;-78
2022/08/23 10:11:22;;;;;;;;;3.00;3.00;;;;;26.97;51.86;101302.47;6312848;22;45192;-80
2022/08/23 10:13:49;;;;;;;;;3.00;3.00;;;;;27.00;51.43;101301.41;6312465;22;45387;-78
2022/08/23 10:16:39;;;;;;;;;2.00;2.00;;;;;27.00;51.71;101296.00;6339847;22;46110;-78
2022/08/23 10:19:09;;;;;;;;;2.33;2.33;;;;;27.09;51.21;101289.97;6311140;22;45432;-78
2022/08/23 10:22:07;;;;;;;;;4.67;4.00;;;;;27.22;51.22;101290.94;6339821;22;45288;-78
2022/08/23 10:24:54;;;;;;;;;4.00;4.00;;;;;27.39;51.06;101289.84;6317250;22;45205;-79
2022/08/23 10:30:54;;;;;;;;;2.33;2.33;;;;;27.75;50.38;101290.19;6340175;22;45282;-78
2022/08/23 10:33:35;;;;;;;;;3.67;3.67;;;;;27.80;50.37;101283.56;6312055;22;45437;-78
2022/08/23 10:36:12;;;;;;;;;1.67;1.67;;;;;27.91;49.91;101283.69;6339605;22;45231;-77
2022/08/23 10:38:57;;;;;;;;;2.67;2.67;;;;;28.05;49.66;101280.03;6339809;22;46711;-77
2022/08/23 10:41:38;;;;;;;;;1.67;1.67;;;;;28.17;48.98;101272.03;6311636;22;45162;-76
2022/08/23 10:44:34;;;;;;;;;1.67;1.67;;;;;28.27;49.27;101275.84;6310842;22;45302;-78
2022/08/23 10:47:29;;;;;;;;;1.00;1.00;;;;;28.29;48.79;101273.91;6311911;22;45369;-80
2022/08/23 10:50:02;;;;;;;;;3.00;3.00;;;;;28.23;48.17;101269.78;6314130;22;45360;-79
2022/08/23 10:52:39;;;;;;;;;46.75;40.25;;;;;28.21;48.67;101265.44;6312329;22;45321;-81
2022/08/23 10:55:16;;;;;;;;;2.00;2.00;;;;;28.33;48.59;101264.56;6340906;22;45219;-82
2022/08/23 10:57:45;;;;;;;;;36.50;32.25;;;;;28.54;47.70;101273.06;6342028;22;45156;-81
2022/08/23 11:00:17;;;;;;;;;2.67;2.67;;;;;28.67;48.06;101268.50;6340553;22;46485;-79
2022/08/23 11:03:04;;;;;;;;;2.00;1.67;;;;;28.88;47.51;101267.94;6340941;22;45258;-78
2022/08/23 11:05:34;;;;;;;;;2.00;1.33;;;;;29.13;47.03;101264.31;6340991;22;45423;-78
2022/08/23 11:07:59;;;;;;;;;0.33;0.33;;;;;29.21;46.24;101268.19;6339983;22;45258;-77
2022/08/23 11:10:40;;;;;;;;;0.33;0.33;;;;;29.22;46.13;101259.09;6312140;22;45223;-78
2022/08/23 11:13:11;;;;;;;;;0.00;0.00;;;;;29.18;45.85;101256.72;6340662;22;45387;-79
2022/08/23 11:16:00;;;;;;;;;1.00;0.33;;;;;29.08;45.72;101266.50;6312280;22;45206;-79
2022/08/23 11:18:38;;;;;;;;;1.00;1.00;;;;;28.92;45.95;101262.19;6312733;22;45445;-79
2022/08/23 11:21:32;;;;;;;;;0.00;0.00;;;;;28.75;45.44;101257.13;6340754;22;45333;-79
2022/08/23 11:23:57;;;;;;;;;0.00;0.00;;;;;28.70;45.98;101254.72;6312648;22;45247;-75
2022/08/23 11:26:26;;;;;;;;;1.00;1.00;;;;;28.69;46.25;101258.44;6312689;22;45406;-79
2022/08/23 11:29:06;;;;;;;;;1.00;1.00;;;;;28.65;46.09;101256.03;6341006;22;45259;-79
2022/08/23 11:31:37;;;;;;;;;1.00;1.00;;;;;28.62;45.92;101262.53;6340475;22;45356;-77
2022/08/23 11:34:07;;;;;;;;;0.00;0.00;;;;;28.59;45.99;101260.06;6312584;22;45256;-78
2022/08/23 11:36:35;;;;;;;;;2.00;2.00;;;;;28.68;46.25;101253.09;6340734;22;45417;-79
2022/08/23 11:39:05;;;;;;;;;0.00;0.00;;;;;28.85;46.69;101254.63;6312299;22;45426;-79
2022/08/23 11:41:35;;;;;;;;;1.67;1.67;;;;;29.07;45.95;101260.22;6340819;22;45315;-78
2022/08/23 11:44:06;;;;;;;;;0.67;0.67;;;;;29.30;46.24;101255.81;6340488;22;45238;-76
2022/08/23 11:46:49;;;;;;;;;1.00;1.00;;;;;29.53;45.58;101256.78;6340190;22;45329;-79